createdAt,value
2017-10-18T00:01:13.646Z,34.70
2017-10-18T00:03:40.739Z,36.75
2017-10-18T00:06:06.954Z,37.20
2017-10-18T00:08:33.867Z,35.35
2017-10-18T00:11:00.185Z,33.28
2017-10-18T00:13:26.603Z,40.85
2017-10-18T00:15:53.733Z,43.50
2017-10-18T00:18:19.865Z,37.60
2017-10-18T00:20:46.195Z,35.70
2017-10-18T00:23:12.502Z,31.87
2017-10-18T00:25:38.837Z,33.17
2017-10-18T00:28:05.198Z,34.65
2017-10-18T00:30:31.716Z,33.53
2017-10-18T00:32:58.074Z,41.70
2017-10-18T00:35:25.184Z,40.30
2017-10-18T00:37:51.564Z,41.37
2017-10-18T00:40:17.942Z,40.53
2017-10-18T00:42:44.576Z,35.00
2017-10-18T00:45:10.918Z,34.33
2017-10-18T00:47:38.021Z,39.42
2017-10-18T00:50:04.348Z,35.80
2017-10-18T00:52:30.676Z,44.22
2017-10-18T00:54:57.012Z,34.85
2017-10-18T00:57:24.086Z,32.92
2017-10-18T00:59:55.224Z,33.28
2017-10-18T01:02:21.354Z,35.13
2017-10-18T01:04:47.485Z,33.30
2017-10-18T01:07:13.625Z,38.30
2017-10-18T01:09:39.741Z,38.70
2017-10-18T01:12:05.875Z,38.50
2017-10-18T01:14:32.033Z,33.85
2017-10-18T01:16:58.165Z,33.20
2017-10-18T01:19:24.298Z,38.65
2017-10-18T01:21:50.427Z,33.45
2017-10-18T01:24:17.312Z,34.83
2017-10-18T01:26:43.492Z,40.05
2017-10-18T01:29:10.378Z,34.50
2017-10-18T01:31:36.500Z,36.72
2017-10-18T01:34:03.349Z,36.75
2017-10-18T01:36:30.210Z,37.78
2017-10-18T01:38:57.101Z,40.58
2017-10-18T01:41:23.221Z,36.53
2017-10-18T01:43:49.387Z,33.92
2017-10-18T01:46:15.549Z,38.35
2017-10-18T01:48:41.681Z,38.13
2017-10-18T01:51:07.825Z,36.08
2017-10-18T01:53:33.970Z,39.67
2017-10-18T01:56:00.101Z,38.15
2017-10-18T01:58:26.429Z,35.55
2017-10-18T02:00:52.759Z,32.58
2017-10-18T02:03:19.828Z,38.83
2017-10-18T02:05:46.202Z,30.33
2017-10-18T02:08:12.429Z,38.20
2017-10-18T02:10:38.852Z,43.08
2017-10-18T02:13:05.972Z,35.03
2017-10-18T02:15:33.041Z,44.78
2017-10-18T02:17:59.244Z,45.08
2017-10-18T02:20:26.315Z,38.30
2017-10-18T02:22:52.465Z,45.83
2017-10-18T02:25:18.592Z,47.67
2017-10-18T02:27:44.918Z,40.28
2017-10-18T02:30:12.708Z,42.62
2017-10-18T02:32:39.569Z,37.65
2017-10-18T02:35:06.437Z,41.33
2017-10-18T02:37:32.653Z,45.53
2017-10-18T02:39:59.511Z,37.72
2017-10-18T02:42:26.389Z,45.50
2017-10-18T02:44:52.541Z,46.50
2017-10-18T02:47:18.669Z,44.05
2017-10-18T02:49:44.939Z,41.42
2017-10-18T02:52:11.065Z,42.90
2017-10-18T02:54:37.224Z,38.75
2017-10-18T02:57:03.389Z,43.05
2017-10-18T02:59:29.558Z,38.13
2017-10-18T03:01:56.621Z,42.60
2017-10-18T03:04:23.491Z,43.63
2017-10-18T03:06:50.105Z,38.35
2017-10-18T03:09:16.980Z,42.67
2017-10-18T03:11:43.092Z,39.90
2017-10-18T03:14:09.218Z,43.03
2017-10-18T03:16:35.331Z,37.53
2017-10-18T03:19:01.468Z,39.15
2017-10-18T03:21:27.669Z,40.67
2017-10-18T03:23:53.852Z,41.77
2017-10-18T03:26:20.212Z,37.88
2017-10-18T03:28:46.557Z,40.03
2017-10-18T03:31:12.918Z,35.90
2017-10-18T03:33:39.286Z,37.90
2017-10-18T03:36:05.900Z,42.57
2017-10-18T03:38:32.280Z,37.90
2017-10-18T03:40:58.681Z,41.00
2017-10-18T03:43:25.025Z,33.13
2017-10-18T03:45:51.359Z,35.20
2017-10-18T03:48:18.630Z,35.80
2017-10-18T03:50:44.985Z,39.10
2017-10-18T03:53:11.293Z,37.27
2017-10-18T03:55:38.373Z,47.17
2017-10-18T03:58:04.699Z,36.10
2017-10-18T04:00:31.862Z,40.80
2017-10-18T04:02:58.943Z,33.83
2017-10-18T04:05:25.078Z,36.27
2017-10-18T04:07:51.943Z,33.90
2017-10-18T04:10:18.057Z,33.47
2017-10-18T04:12:44.417Z,35.00
2017-10-18T04:15:11.535Z,33.40
2017-10-18T04:17:37.856Z,31.00
2017-10-18T04:20:07.613Z,40.07
2017-10-18T04:22:33.733Z,37.93
2017-10-18T04:24:59.881Z,29.80
2017-10-18T04:27:25.996Z,33.73
2017-10-18T04:29:52.856Z,34.93
2017-10-18T04:32:22.242Z,34.42
2017-10-18T04:34:49.333Z,35.73
2017-10-18T04:37:15.618Z,32.00
2017-10-18T04:39:41.781Z,33.15
2017-10-18T04:42:07.937Z,33.50
2017-10-18T04:44:34.841Z,30.05
2017-10-18T04:47:01.073Z,31.33
2017-10-18T04:49:27.283Z,30.73
2017-10-18T04:51:53.426Z,37.72
2017-10-18T04:54:19.560Z,39.55
2017-10-18T04:56:46.417Z,32.90
2017-10-18T04:59:13.292Z,29.83
2017-10-18T05:01:39.420Z,31.05
2017-10-18T05:04:06.309Z,32.90
2017-10-18T05:06:33.098Z,32.10
2017-10-18T05:08:59.287Z,27.00
2017-10-18T05:11:26.177Z,30.80
2017-10-18T05:13:52.326Z,34.63
2017-10-18T05:16:18.473Z,27.55
2017-10-18T05:18:44.713Z,29.10
2017-10-18T05:21:10.890Z,29.90
2017-10-18T05:23:37.034Z,32.97
2017-10-18T05:26:03.207Z,28.70
2017-10-18T05:28:30.163Z,26.65
2017-10-18T05:30:56.345Z,32.60
2017-10-18T05:33:22.472Z,29.40
2017-10-18T05:35:48.614Z,35.95
2017-10-18T05:38:14.750Z,55.38
2017-10-18T05:40:41.621Z,39.00
2017-10-18T05:43:07.818Z,36.72
2017-10-18T05:45:34.126Z,39.63
2017-10-18T05:48:00.254Z,43.70
2017-10-18T05:50:26.386Z,62.97
2017-10-18T05:52:52.523Z,39.28
2017-10-18T05:55:18.649Z,57.15
2017-10-18T05:57:44.774Z,50.40
2017-10-18T06:00:11.669Z,80.72
2017-10-18T06:02:37.793Z,57.53
2017-10-18T06:05:04.096Z,48.40
2017-10-18T06:07:31.009Z,44.97
2017-10-18T06:09:57.117Z,50.08
2017-10-18T06:12:23.976Z,48.87
2017-10-18T06:14:50.920Z,52.88
2017-10-18T06:17:17.027Z,45.63
2017-10-18T06:19:43.221Z,53.58
2017-10-18T06:22:10.102Z,100.50
2017-10-18T06:24:36.246Z,69.12
2017-10-18T06:27:02.510Z,120.80
2017-10-18T06:29:28.636Z,70.90
2017-10-18T06:31:54.764Z,49.00
2017-10-18T06:34:20.881Z,61.25
2017-10-18T06:36:47.833Z,135.95
2017-10-18T06:39:13.996Z,67.62
2017-10-18T06:41:41.048Z,78.95
2017-10-18T06:44:07.948Z,55.22
2017-10-18T06:46:34.072Z,51.80
2017-10-18T06:49:00.198Z,93.97
2017-10-18T06:51:27.109Z,100.95
2017-10-18T06:53:53.269Z,82.28
2017-10-18T06:56:19.477Z,53.78
2017-10-18T06:58:45.833Z,70.25
2017-10-18T07:01:12.277Z,79.13
2017-10-18T07:03:38.636Z,80.85
2017-10-18T07:06:05.073Z,51.72
2017-10-18T07:08:31.456Z,51.03
2017-10-18T07:10:58.544Z,77.95
2017-10-18T07:13:25.001Z,49.90
2017-10-18T07:15:51.361Z,39.88
2017-10-18T07:18:17.731Z,39.92
2017-10-18T07:20:44.049Z,76.97
2017-10-18T07:23:11.410Z,41.47
2017-10-18T07:25:37.730Z,40.20
2017-10-18T07:28:04.060Z,59.33
2017-10-18T07:30:30.426Z,41.63
2017-10-18T07:32:57.166Z,42.60
2017-10-18T07:35:24.053Z,64.28
2017-10-18T07:37:50.385Z,38.40
2017-10-18T07:40:16.731Z,90.78
2017-10-18T07:42:43.114Z,34.58
2017-10-18T07:45:10.209Z,108.85
2017-10-18T07:47:36.627Z,35.53
2017-10-18T07:50:02.996Z,36.40
2017-10-18T07:52:29.266Z,75.07
2017-10-18T07:54:55.625Z,65.10
2017-10-18T07:57:21.993Z,45.72
2017-10-18T07:59:48.324Z,40.83
2017-10-18T08:02:14.661Z,36.50
2017-10-18T08:04:41.005Z,41.45
2017-10-18T08:07:07.585Z,80.38
2017-10-18T08:09:33.928Z,39.35
2017-10-18T08:12:00.307Z,122.28
2017-10-18T08:14:26.646Z,60.83
2017-10-18T08:16:52.985Z,51.20
2017-10-18T08:19:20.109Z,54.85
2017-10-18T08:21:46.449Z,34.70
2017-10-18T08:24:12.970Z,41.28
2017-10-18T08:26:39.344Z,46.23
2017-10-18T08:29:07.057Z,42.88
2017-10-18T08:31:33.451Z,37.15
2017-10-18T08:33:59.843Z,57.85
2017-10-18T08:36:26.199Z,47.97
2017-10-18T08:38:52.658Z,68.47
2017-10-18T08:41:18.976Z,72.85
2017-10-18T08:43:45.272Z,46.50
2017-10-18T08:46:14.877Z,36.55
2017-10-18T08:48:41.768Z,34.72
2017-10-18T08:51:07.997Z,31.05
2017-10-18T08:53:34.137Z,39.17
2017-10-18T08:56:00.285Z,33.83
2017-10-18T08:58:26.418Z,30.90
2017-10-18T09:03:23.590Z,37.00
2017-10-18T09:05:49.708Z,32.73
2017-10-18T09:08:16.605Z,31.03
2017-10-18T09:10:42.725Z,34.23
2017-10-18T09:13:09.605Z,36.57
2017-10-18T09:18:07.802Z,31.20
2017-10-18T09:20:33.921Z,31.10
2017-10-18T09:23:00.037Z,27.80
2017-10-18T09:25:26.149Z,31.07
2017-10-18T09:27:52.254Z,28.37
2017-10-18T09:30:18.376Z,30.33
2017-10-18T09:32:51.512Z,30.70
2017-10-18T09:35:17.656Z,28.43
2017-10-18T09:37:43.908Z,29.50
2017-10-18T09:40:10.028Z,32.37
2017-10-18T09:42:36.900Z,29.23
2017-10-18T09:45:03.036Z,30.83
2017-10-18T09:47:33.720Z,29.20
2017-10-18T09:50:00.094Z,28.40
2017-10-18T09:52:26.957Z,27.93
2017-10-18T09:54:53.076Z,30.07
2017-10-18T09:57:19.200Z,26.70
2017-10-18T09:59:46.066Z,22.70
2017-10-18T10:02:19.853Z,26.73
2017-10-18T10:04:45.989Z,25.73
2017-10-18T10:07:12.150Z,25.13
2017-10-18T10:09:38.265Z,23.83
2017-10-18T10:12:04.384Z,26.13
2017-10-18T10:14:30.489Z,26.83
2017-10-18T10:16:56.597Z,25.53
2017-10-18T10:19:23.538Z,26.33
2017-10-18T10:21:54.684Z,25.90
2017-10-18T10:24:20.868Z,27.10
2017-10-18T10:26:47.764Z,26.03
2017-10-18T10:29:13.896Z,24.43
2017-10-18T10:31:40.030Z,19.23
2017-10-18T10:34:06.240Z,21.20
2017-10-18T10:36:32.375Z,17.57
2017-10-18T10:38:59.245Z,18.47
2017-10-18T10:41:29.073Z,18.07
2017-10-18T10:43:55.193Z,20.30
2017-10-18T10:46:21.326Z,18.80
2017-10-18T10:48:47.468Z,15.43
2017-10-18T10:51:14.359Z,17.60
2017-10-18T10:53:40.472Z,16.53
2017-10-18T10:56:06.732Z,15.27
2017-10-18T10:58:32.865Z,16.63
2017-10-18T11:01:04.532Z,13.53
2017-10-18T11:03:30.652Z,13.40
2017-10-18T11:05:56.819Z,16.33
2017-10-18T11:08:23.678Z,12.70
2017-10-18T11:10:49.796Z,15.43
2017-10-18T11:13:15.917Z,15.33
2017-10-18T11:15:42.025Z,11.50
2017-10-18T11:18:08.390Z,13.43
2017-10-18T11:20:41.181Z,15.50
2017-10-18T11:23:07.335Z,11.43
2017-10-18T11:25:33.549Z,13.97
2017-10-18T11:27:59.669Z,11.70
2017-10-18T11:30:26.554Z,10.33
2017-10-18T11:32:53.414Z,11.83
2017-10-18T11:35:23.550Z,13.07
2017-10-18T11:37:49.695Z,15.10
2017-10-18T11:40:15.821Z,25.20
2017-10-18T11:42:41.952Z,13.63
2017-10-18T11:45:08.157Z,15.83
2017-10-18T11:47:34.266Z,14.23
2017-10-18T11:50:00.389Z,13.30
2017-10-18T11:52:26.543Z,12.10
2017-10-18T11:57:25.563Z,14.50
2017-10-18T11:59:51.684Z,12.03
2017-10-18T12:02:17.780Z,11.77
2017-10-18T12:04:43.973Z,13.70
2017-10-18T12:07:10.843Z,11.00
2017-10-18T12:09:36.981Z,14.17
2017-10-18T12:12:03.089Z,16.87
2017-10-18T12:14:33.721Z,15.83
2017-10-18T12:17:00.049Z,12.70
2017-10-18T12:19:26.285Z,11.37
2017-10-18T12:21:52.388Z,12.10
2017-10-18T12:24:18.492Z,11.70
2017-10-18T12:26:44.671Z,12.70
2017-10-18T12:29:10.789Z,17.10
2017-10-18T12:31:37.658Z,11.33
2017-10-18T12:34:09.780Z,13.47
2017-10-18T12:36:35.913Z,14.00
2017-10-18T12:39:02.794Z,10.50
2017-10-18T12:41:29.661Z,14.40
2017-10-18T12:43:55.764Z,12.87
2017-10-18T12:46:21.892Z,10.63
2017-10-18T12:48:48.758Z,10.73
2017-10-18T12:51:18.692Z,11.40
2017-10-18T12:53:44.808Z,12.77
2017-10-18T12:56:14.319Z,10.97
2017-10-18T12:58:40.858Z,10.20
2017-10-18T13:01:07.191Z,11.70
2017-10-18T13:03:33.517Z,11.37
2017-10-18T13:06:00.669Z,10.63
2017-10-18T13:08:27.016Z,12.10
2017-10-18T13:10:53.333Z,12.20
2017-10-18T13:13:19.648Z,11.90
2017-10-18T13:15:45.964Z,11.57
2017-10-18T13:18:13.045Z,10.40
2017-10-18T13:20:39.349Z,21.97
2017-10-18T13:23:05.757Z,11.07
2017-10-18T13:25:32.840Z,11.07
2017-10-18T13:27:59.870Z,10.33
2017-10-18T13:30:26.213Z,11.57
2017-10-18T13:32:56.491Z,13.00
2017-10-18T13:35:22.822Z,11.40
2017-10-18T13:37:49.905Z,9.90
2017-10-18T13:40:16.209Z,9.23
2017-10-18T13:42:42.504Z,8.53
2017-10-18T13:45:09.597Z,8.60
2017-10-18T13:47:36.035Z,11.83
2017-10-18T13:50:02.361Z,13.90
2017-10-18T13:52:31.116Z,10.20
2017-10-18T13:54:57.423Z,9.13
2017-10-18T13:57:23.765Z,8.97
2017-10-18T13:59:50.113Z,11.30
2017-10-18T14:02:17.177Z,8.73
2017-10-18T14:04:43.506Z,8.33
2017-10-18T14:07:09.873Z,9.77
2017-10-18T14:09:36.256Z,12.50
2017-10-18T14:12:06.790Z,11.17
2017-10-18T14:14:33.132Z,9.77
2017-10-18T14:17:00.198Z,8.57
2017-10-18T14:19:27.258Z,9.33
2017-10-18T14:21:53.630Z,8.07
2017-10-18T14:24:20.018Z,8.43
2017-10-18T14:26:46.341Z,9.93
2017-10-18T14:29:14.068Z,13.20
2017-10-18T14:31:40.410Z,7.70
2017-10-18T14:34:07.577Z,7.47
2017-10-18T14:36:35.187Z,9.20
2017-10-18T14:39:01.513Z,9.47
2017-10-18T14:41:27.841Z,9.47
2017-10-18T14:43:54.950Z,8.40
2017-10-18T14:46:22.238Z,7.57
2017-10-18T14:48:48.602Z,11.57
2017-10-18T14:51:15.069Z,8.53
2017-10-18T14:53:45.186Z,8.97
2017-10-18T14:56:11.517Z,8.47
2017-10-18T14:58:38.083Z,11.80
2017-10-18T15:01:04.610Z,8.43
2017-10-18T15:03:31.092Z,8.00
2017-10-18T15:05:57.573Z,9.43
2017-10-18T15:08:23.927Z,9.13
2017-10-18T15:10:50.251Z,7.73
2017-10-18T15:13:16.585Z,9.43
2017-10-18T15:15:42.925Z,8.47
2017-10-18T15:18:09.277Z,11.07
2017-10-18T15:20:35.570Z,9.87
2017-10-18T15:23:02.613Z,7.87
2017-10-18T15:25:29.017Z,10.07
2017-10-18T15:27:55.348Z,8.10
2017-10-18T15:30:21.690Z,10.77
2017-10-18T15:32:48.016Z,10.97
2017-10-18T15:35:14.377Z,10.00
2017-10-18T15:37:40.724Z,8.27
2017-10-18T15:40:07.031Z,8.43
2017-10-18T15:42:33.332Z,9.30
2017-10-18T15:44:59.672Z,11.77
2017-10-18T15:47:25.979Z,9.37
2017-10-18T15:49:52.309Z,13.30
2017-10-18T15:52:18.695Z,9.20
2017-10-18T15:54:45.069Z,9.00
2017-10-18T15:57:11.414Z,10.37
2017-10-18T15:59:37.843Z,9.80
2017-10-18T16:02:04.170Z,8.80
2017-10-18T16:04:30.549Z,11.00
2017-10-18T16:06:57.650Z,9.67
2017-10-18T16:09:23.992Z,8.60
2017-10-18T16:11:50.356Z,11.70
2017-10-18T16:14:16.677Z,11.30
2017-10-18T16:16:43.055Z,9.77
2017-10-18T16:19:09.510Z,14.03
2017-10-18T16:21:35.885Z,12.03
2017-10-18T16:24:02.337Z,10.67
2017-10-18T16:26:28.789Z,9.50
2017-10-18T16:28:55.657Z,10.67
2017-10-18T16:31:21.990Z,13.40
2017-10-18T16:33:48.408Z,10.73
2017-10-18T16:36:15.542Z,13.17
2017-10-18T16:38:41.969Z,12.43
2017-10-18T16:41:08.410Z,12.33
2017-10-18T16:43:34.802Z,13.37
2017-10-18T16:46:01.247Z,12.43
2017-10-18T16:48:27.684Z,12.10
2017-10-18T16:50:54.761Z,13.20
2017-10-18T16:53:21.881Z,13.40
2017-10-18T16:55:48.225Z,11.67
2017-10-18T16:58:14.561Z,13.50
2017-10-18T17:00:41.226Z,11.47
2017-10-18T17:03:07.540Z,13.30
2017-10-18T17:05:34.644Z,13.03
2017-10-18T17:08:01.786Z,11.77
2017-10-18T17:10:28.168Z,13.90
2017-10-18T17:12:54.517Z,18.63
2017-10-18T17:15:20.866Z,12.50
2017-10-18T17:17:47.302Z,15.13
2017-10-18T17:20:13.738Z,13.40
2017-10-18T17:22:40.072Z,14.63
2017-10-18T17:25:07.132Z,12.60
2017-10-18T17:27:33.530Z,14.60
2017-10-18T17:29:59.855Z,13.63
2017-10-18T17:32:26.178Z,14.50
2017-10-18T17:34:53.260Z,13.00
2017-10-18T17:37:19.586Z,14.90
2017-10-18T17:39:46.014Z,12.90
2017-10-18T17:42:13.100Z,12.77
2017-10-18T17:44:39.450Z,15.10
2017-10-18T17:47:05.858Z,17.67
2017-10-18T17:49:32.267Z,14.90
2017-10-18T17:51:58.588Z,15.23
2017-10-18T17:54:24.969Z,12.73
2017-10-18T17:56:51.293Z,18.97
2017-10-18T17:59:18.517Z,12.20
2017-10-18T18:01:45.189Z,14.23
2017-10-18T18:04:11.547Z,13.47
2017-10-18T18:06:37.900Z,14.27
2017-10-18T18:09:04.267Z,13.80
2017-10-18T18:11:31.337Z,12.07
2017-10-18T18:13:57.716Z,17.27
2017-10-18T18:16:24.128Z,12.90
2017-10-18T18:18:51.276Z,15.50
2017-10-18T18:21:17.637Z,12.43
2017-10-18T18:23:44.841Z,12.67
2017-10-18T18:26:11.198Z,15.50
2017-10-18T18:28:37.669Z,12.87
2017-10-18T18:31:04.958Z,16.53
2017-10-18T18:33:31.357Z,12.17
2017-10-18T18:35:57.688Z,13.97
2017-10-18T18:38:24.180Z,14.70
2017-10-18T18:40:50.585Z,12.80
2017-10-18T18:43:16.954Z,12.43
2017-10-18T18:45:44.048Z,14.23
2017-10-18T18:48:10.476Z,13.97
2017-10-18T18:50:36.840Z,16.33
2017-10-18T18:53:03.171Z,15.93
2017-10-18T18:55:29.532Z,14.23
2017-10-18T18:57:56.003Z,14.77
2017-10-18T19:00:22.463Z,14.00
2017-10-18T19:02:48.845Z,11.53
2017-10-18T19:05:15.904Z,13.43
2017-10-18T19:07:42.960Z,15.37
2017-10-18T19:10:09.301Z,13.57
2017-10-18T19:12:35.719Z,12.93
2017-10-18T19:15:05.460Z,13.90
2017-10-18T19:17:32.568Z,13.23
2017-10-18T19:19:58.945Z,15.47
2017-10-18T19:22:25.418Z,14.90
2017-10-18T19:24:51.737Z,15.93
2017-10-18T19:27:18.060Z,12.53
2017-10-18T19:29:48.604Z,13.70
2017-10-18T19:32:14.940Z,14.93
2017-10-18T19:34:42.022Z,12.73
2017-10-18T19:37:08.398Z,14.20
2017-10-18T19:39:34.733Z,14.50
2017-10-18T19:42:01.896Z,13.67
2017-10-18T19:44:30.497Z,14.83
2017-10-18T19:47:01.107Z,14.40
2017-10-18T19:49:27.493Z,12.97
2017-10-18T19:51:53.973Z,15.63
2017-10-18T19:54:20.283Z,17.97
2017-10-18T19:56:46.670Z,15.05
2017-10-18T19:59:13.026Z,13.53
2017-10-18T20:01:39.392Z,16.80
2017-10-18T20:04:05.901Z,16.00
2017-10-18T20:06:32.494Z,15.40
2017-10-18T20:08:58.837Z,15.80
2017-10-18T20:11:25.241Z,14.53
2017-10-18T20:13:51.617Z,15.83
2017-10-18T20:16:19.274Z,14.48
2017-10-18T20:18:45.652Z,14.00
2017-10-18T20:21:12.093Z,13.45
2017-10-18T20:23:38.455Z,16.03
2017-10-18T20:26:04.935Z,13.23
2017-10-18T20:28:31.265Z,15.20
2017-10-18T20:30:57.647Z,17.53
2017-10-18T20:33:23.994Z,14.20
2017-10-18T20:36:09.757Z,15.43
2017-10-18T20:38:40.962Z,14.90
2017-10-18T20:41:07.391Z,12.95
2017-10-18T20:43:33.908Z,15.87
2017-10-18T20:46:00.340Z,16.23
2017-10-18T20:48:26.705Z,14.18
2017-10-18T20:50:53.081Z,14.13
2017-10-18T20:53:19.447Z,16.58
2017-10-18T20:55:45.788Z,17.20
2017-10-18T20:58:12.197Z,13.30
2017-10-18T21:00:39.342Z,13.85
2017-10-18T21:03:05.753Z,15.50
2017-10-18T21:05:32.112Z,15.90
2017-10-18T21:07:58.586Z,16.83
2017-10-18T21:10:24.978Z,16.73
2017-10-18T21:12:51.775Z,14.90
2017-10-18T21:15:18.569Z,15.57
2017-10-18T21:17:45.201Z,22.50
2017-10-18T21:20:12.286Z,14.20
2017-10-18T21:22:38.621Z,17.50
2017-10-18T21:25:06.489Z,15.63
2017-10-18T21:27:33.605Z,13.98
2017-10-18T21:29:59.933Z,14.82
2017-10-18T21:32:26.264Z,16.50
2017-10-18T21:34:52.773Z,15.40
2017-10-18T21:37:19.132Z,20.15
2017-10-18T21:39:46.208Z,13.88
2017-10-18T21:42:12.552Z,15.95
2017-10-18T21:44:39.271Z,16.25
2017-10-18T21:47:06.349Z,17.00
2017-10-18T21:49:32.724Z,16.62
2017-10-18T21:51:59.080Z,19.02
2017-10-18T21:54:25.978Z,16.05
2017-10-18T21:56:53.068Z,14.77
2017-10-18T21:59:19.448Z,15.80
2017-10-18T22:01:45.809Z,14.23
2017-10-18T22:04:12.218Z,18.50
2017-10-18T22:06:38.572Z,15.93
2017-10-18T22:09:04.987Z,14.60
2017-10-18T22:11:32.071Z,17.83
2017-10-18T22:13:58.381Z,15.25
2017-10-18T22:16:25.450Z,15.80
2017-10-18T22:18:51.821Z,16.83
2017-10-18T22:21:18.169Z,15.65
2017-10-18T22:23:44.812Z,14.68
2017-10-18T22:26:11.316Z,15.38
2017-10-18T22:28:38.411Z,17.02
2017-10-18T22:31:04.733Z,17.50
2017-10-18T22:33:31.074Z,16.23
2017-10-18T22:35:57.482Z,17.00
2017-10-18T22:38:23.927Z,16.10
2017-10-18T22:40:50.250Z,15.50
2017-10-18T22:43:17.212Z,16.37
2017-10-18T22:45:44.334Z,15.25
2017-10-18T22:48:10.787Z,16.27
2017-10-18T22:50:37.146Z,15.45
2017-10-18T22:53:03.483Z,18.70
2017-10-18T22:55:29.840Z,18.10
2017-10-18T22:57:56.209Z,15.73
2017-10-18T23:00:22.539Z,17.20
2017-10-18T23:02:48.878Z,14.32
2017-10-18T23:05:15.188Z,15.98
2017-10-18T23:07:41.514Z,18.52
2017-10-18T23:10:08.672Z,17.50
2017-10-18T23:12:35.041Z,18.98
2017-10-18T23:15:01.382Z,15.40
2017-10-18T23:17:27.750Z,15.43
2017-10-18T23:19:54.095Z,17.40
2017-10-18T23:22:20.907Z,14.93
2017-10-18T23:24:48.030Z,16.05
2017-10-18T23:27:14.394Z,16.45
2017-10-18T23:29:41.468Z,16.60
2017-10-18T23:32:08.598Z,16.25
2017-10-18T23:34:34.913Z,14.55
2017-10-18T23:37:01.282Z,16.80
2017-10-18T23:39:27.650Z,16.35
2017-10-18T23:41:54.721Z,14.23
2017-10-18T23:44:21.057Z,19.75
2017-10-18T23:46:47.442Z,15.40
2017-10-18T23:49:13.784Z,17.17
2017-10-18T23:51:40.228Z,15.13
2017-10-18T23:54:06.575Z,17.10
2017-10-18T23:56:32.953Z,17.65
2017-10-18T23:58:59.318Z,18.40
